Flight Track Log - Related Links

Times and Time Zones

All times are in EST time to prevent confusion due to time zone crossing. See the CSN6820 flight status page for this flight to view local times or setup timezone preferences in your user account.

Time Position Orientation Groundspeed Altitude Reporting Facility
EST Latitude Longitude Course Direction KTS MPH feet Rate Location/Type
Tue 10:22:00 AM 38.0994 80.9116 38° Northeast  Level Estimated
Tue 10:23:00 AM 38.1874 81.0001 38° Northeast  Level Estimated
Tue 10:24:00 AM 38.2754 81.0889 38° Northeast  Level Estimated
Tue 10:25:00 AM 38.3632 81.1779 38° Northeast  Level Estimated
Tue 10:26:00 AM 38.4510 81.2672 39° Northeast  Level Estimated
Tue 10:27:00 AM 38.5387 81.3566 39° Northeast  Level Estimated
Tue 10:28:00 AM 38.6264 81.4463 39° Northeast  Level Estimated
Tue 10:29:00 AM 38.7140 81.5361 39° Northeast  Level Estimated
Tue 10:30:00 AM 38.8015 81.6262 39° Northeast  Level Estimated
Tue 10:31:00 AM 38.8889 81.7166 39° Northeast  Level Estimated
Tue 10:32:00 AM 38.9763 81.8071 39° Northeast  Level Estimated
Tue 10:33:00 AM 39.0636 81.8979 39° Northeast  Level Estimated
Tue 10:34:00 AM 39.1508 81.9889 39° Northeast  Level Estimated
Tue 10:35:00 AM 39.2380 82.0801 39° Northeast  Level Estimated
Tue 10:36:00 AM 39.3251 82.1715 39° Northeast  Level Estimated
Tue 10:37:00 AM 39.4121 82.2632 39° Northeast  Level Estimated
Tue 10:38:00 AM 39.4990 82.3551 39° Northeast  Level Estimated
Tue 10:39:00 AM 39.5859 82.4472 39° Northeast  Level Estimated
Tue 10:40:00 AM 39.6727 82.5396 39° Northeast  Level Estimated
Tue 10:41:00 AM 39.7594 82.6322 39° Northeast  Level Estimated
Tue 10:42:00 AM 39.8461 82.7250 39° Northeast  Level Estimated
Tue 10:43:00 AM 39.9327 82.8181 39° Northeast  Level Estimated
Tue 10:44:00 AM 40.0192 82.9114 40° Northeast  Level Estimated
Tue 10:45:00 AM 40.1056 83.0049 40° Northeast  Level Estimated
Tue 10:46:00 AM 40.1920 83.0987 40° Northeast  Level Estimated
Tue 10:47:00 AM 40.2783 83.1927 40° Northeast  Level Estimated
Tue 10:48:00 AM 40.3645 83.2870 40° Northeast  Level Estimated
Tue 10:49:00 AM 40.4506 83.3815 40° Northeast  Level Estimated
Tue 10:50:00 AM 40.5366 83.4762 40° Northeast  Level Estimated
Tue 10:51:00 AM 40.6226 83.5712 40° Northeast  Level Estimated
Tue 10:52:00 AM 40.7085 83.6664 40° Northeast  Level Estimated
Tue 10:53:00 AM 40.7943 83.7619 40° Northeast  Level Estimated
Tue 10:54:00 AM 40.8801 83.8576 40° Northeast  Level Estimated
Tue 10:55:00 AM 40.9657 83.9536 40° Northeast  Level Estimated
Tue 10:56:00 AM 41.0513 84.0498 40° Northeast  Level Estimated
Tue 10:57:00 AM 41.1368 84.1462 40° Northeast  Level Estimated
Tue 10:58:00 AM 41.2222 84.2430 40° Northeast  Level Estimated
Tue 10:59:00 AM 41.3075 84.3399 40° Northeast  Level Estimated
Tue 11:00:00 AM 41.3928 84.4371 41° Northeast  Level Estimated
Tue 11:01:00 AM 41.4780 84.5346 41° Northeast  Level Estimated
Tue 11:02:00 AM 41.5630 84.6324 41° Northeast  Level Estimated
Tue 11:03:00 AM 41.6481 84.7304 41° Northeast  Level Estimated
Tue 11:04:00 AM 41.7330 84.8286 41° Northeast  Level Estimated
Tue 11:05:00 AM 41.8178 84.9271 41° Northeast  Level Estimated
Tue 11:06:00 AM 41.9026 85.0259 41° Northeast  Level Estimated
Tue 11:07:00 AM 41.9872 85.1249 41° Northeast  Level Estimated
Tue 11:08:00 AM 42.0718 85.2242 41° Northeast  Level Estimated
Tue 11:09:00 AM 42.1563 85.3238 41° Northeast  Level Estimated
Tue 11:10:00 AM 42.2407 85.4236 41° Northeast  Level Estimated
Tue 11:11:00 AM 42.3251 85.5237 41° Northeast  Level Estimated
Tue 11:12:00 AM 42.4093 85.6241 41° Northeast  Level Estimated
Tue 11:13:00 AM 42.4935 85.7247 41° Northeast  Level Estimated
Tue 11:14:00 AM 42.5775 85.8256 41° Northeast  Level Estimated
Tue 11:15:00 AM 42.6615 85.9268 42° Northeast  Level Estimated
Tue 11:16:00 AM 42.7454 86.0283 42° Northeast  Level Estimated
Tue 11:17:00 AM 42.8292 86.1300 42° Northeast  Level Estimated
Tue 11:18:00 AM 42.9129 86.2320 42° Northeast  Level Estimated
Tue 11:19:00 AM 42.9965 86.3343 42° Northeast  Level Estimated
Tue 11:20:00 AM 43.0800 86.4369 42° Northeast  Level Estimated
Tue 11:21:00 AM 43.1634 86.5397 42° Northeast  Level Estimated
Tue 11:22:00 AM 43.2468 86.6428 42° Northeast  Level Estimated
Tue 11:23:00 AM 43.3300 86.7462 42° Northeast  Level Estimated
Tue 11:24:00 AM 43.4132 86.8499 42° Northeast  Level Estimated
Tue 11:25:00 AM 43.4962 86.9539 42° Northeast  Level Estimated
Tue 11:26:00 AM 43.5792 87.0581 42° Northeast  Level Estimated
Tue 11:27:00 AM 43.6621 87.1627 42° Northeast  Level Estimated
Tue 11:28:00 AM 43.7448 87.2675 42° Northeast  Level Estimated
Tue 11:29:00 AM 43.8275 87.3726 43° Northeast  Level Estimated
Tue 11:30:00 AM 43.9071 87.4742 43° Northeast  Level Estimated
Tue 11:31:00 AM 43.9071 87.4742 North  Level Estimated
Tue 11:32:00 AM 43.9071 87.4742 North  Level Estimated
Tue 11:33:00 AM 43.9071 87.4742 North  Level Estimated
Tue 11:34:00 AM 43.9071 87.4742 North  Level Estimated
Tue 11:35:00 AM 43.9071 87.4742 North  Level Estimated
Tue 11:36:00 AM 43.9071 87.4742 North  Level Estimated
Tue 11:37:00 AM 43.9071 87.4742 North  Level Estimated
Tue 11:38:00 AM 43.9071 87.4742 North  Level Estimated
Tue 11:39:00 AM 43.9071 87.4742 North  Level Estimated
Tue 11:40:00 AM 43.9071 87.4742 North  Level Estimated
Tue 11:41:00 AM 43.9071 87.4742 North  Level Estimated
Tue 11:42:00 AM 43.9071 87.4742 North  Level Estimated
Tue 11:43:00 AM 43.9071 87.4742 North  Level Estimated

Login

Don't have an account? Register now (free) for customized features, flight alerts, and more!